Time;durP1;ratioP1;P1;durP2;ratioP2;P2;SDS_P1;SDS_P2;PMS_P1;PMS_P2;Temp;Humidity;BMP_temperature;BMP_pressure;BME280_temperature;BME280_humidity;BME280_pressure;Samples;Min_cycle;Max_cycle;Signal;HPM_P1;HPM_P2
2022/02/25 00:02:06;;;;;;;7.78;3.45;;;;;;;9.75;51.11;99572.44;6154049;22;96895;-79
2022/02/25 00:04:32;;;;;;;8.13;3.10;;;;;;;9.64;51.21;99563.34;6153931;22;96979;-76
2022/02/25 00:06:58;;;;;;;12.00;3.83;;;;;;;9.63;51.30;99565.13;6154843;22;97415;-77
2022/02/25 00:09:23;;;;;;;6.97;3.28;;;;;;;9.71;51.68;99568.25;6153835;22;97330;-76
2022/02/25 00:11:49;;;;;;;6.32;3.55;;;;;;;9.71;51.39;99565.63;6130295;22;97118;-77
2022/02/25 00:14:15;;;;;;;9.82;3.97;;;;;;;9.75;51.60;99563.75;6128833;22;96588;-77
2022/02/25 00:16:41;;;;;;;8.25;3.50;;;;;;;9.72;51.27;99556.84;6129832;22;97335;-76
2022/02/25 00:19:07;;;;;;;9.20;4.25;;;;;;;9.68;51.75;99563.13;6154262;22;97288;-80
2022/02/25 00:21:32;;;;;;;7.78;3.65;;;;;;;9.64;52.02;99558.94;6130037;22;96653;-77
2022/02/25 00:23:58;;;;;;;9.80;4.00;;;;;;;9.73;51.77;99571.66;6154481;22;96788;-76
2022/02/25 00:26:23;;;;;;;9.57;3.55;;;;;;;9.67;51.85;99571.06;6103484;22;100852;-76
2022/02/25 00:28:49;;;;;;;6.63;3.80;;;;;;;9.76;51.65;99573.31;6154229;22;97853;-77
2022/02/25 00:31:15;;;;;;;8.20;3.58;;;;;;;9.82;51.64;99577.44;6104907;22;96512;-76
2022/02/25 00:33:41;;;;;;;7.28;3.58;;;;;;;9.83;52.14;99577.38;6129383;22;97008;-76
2022/02/25 00:36:07;;;;;;;6.93;3.40;;;;;;;9.81;51.49;99594.09;6104343;22;101324;-80
2022/02/25 00:38:32;;;;;;;8.43;3.67;;;;;;;9.80;51.69;99584.50;6104315;22;101412;-76
2022/02/25 00:40:58;;;;;;;9.32;3.58;;;;;;;9.84;52.13;99605.28;6105436;22;97141;-77
2022/02/25 00:43:24;;;;;;;9.30;3.75;;;;;;;9.81;51.77;99646.50;6129149;22;97057;-76
2022/02/25 00:45:49;;;;;;;7.75;3.70;;;;;;;9.86;52.14;99673.38;6129590;22;100699;-76
2022/02/25 00:48:15;;;;;;;7.32;2.13;;;;;;;9.80;51.16;99690.19;6128004;22;97360;-77
2022/02/25 00:50:41;;;;;;;1.73;1.13;;;;;;;9.91;49.20;99724.69;6154786;22;97159;-77
2022/02/25 00:53:06;;;;;;;2.75;0.93;;;;;;;9.86;48.67;99720.53;6153860;22;97247;-77
2022/02/25 00:55:32;;;;;;;3.20;0.90;;;;;;;9.85;48.27;99734.59;6104129;22;100982;-77
2022/02/25 00:57:58;;;;;;;1.20;0.60;;;;;;;9.84;48.00;99720.63;6128776;22;101211;-77
2022/02/25 01:00:24;;;;;;;2.50;0.80;;;;;;;9.71;48.01;99704.53;6129567;22;97744;-77
2022/02/25 01:02:49;;;;;;;1.55;0.60;;;;;;;9.86;47.70;99734.53;6154570;22;97142;-77
2022/02/25 01:05:15;;;;;;;1.10;0.70;;;;;;;9.78;47.73;99725.28;6103692;22;101708;-77
2022/02/25 01:07:42;;;;;;;2.22;0.40;;;;;;;9.77;48.21;99741.91;6129469;22;101206;-77
2022/02/25 01:10:10;;;;;;;1.15;0.60;;;;;;;9.71;48.08;99756.09;6106109;22;96506;-77
2022/02/25 01:12:35;;;;;;;0.85;0.63;;;;;;;9.71;48.35;99766.56;6130519;22;96665;-77
2022/02/25 01:15:01;;;;;;;0.60;0.50;;;;;;;9.51;48.10;99751.63;6129872;22;101158;-76
2022/02/25 01:17:29;;;;;;;1.05;0.52;;;;;;;9.57;48.33;99784.59;6104529;22;101443;-77
2022/02/25 01:19:58;;;;;;;0.70;0.60;;;;;;;9.47;48.85;99784.09;6105842;22;96966;-77
2022/02/25 01:22:25;;;;;;;0.35;0.30;;;;;;;9.52;48.60;99787.41;6129615;22;96935;-77
2022/02/25 01:24:51;;;;;;;0.80;0.57;;;;;;;9.36;48.40;99765.31;6130178;22;97498;-75
2022/02/25 01:27:16;;;;;;;0.80;0.40;;;;;;;9.42;48.84;99780.81;6129523;22;101438;-75
2022/02/25 01:29:42;;;;;;;1.35;0.50;;;;;;;9.45;48.89;99791.16;6130877;22;97051;-75
2022/02/25 01:32:08;;;;;;;1.13;0.40;;;;;;;9.49;48.64;99800.63;6131739;22;97210;-75
2022/02/25 01:34:34;;;;;;;1.17;0.43;;;;;;;9.48;49.45;99806.75;6129861;22;97550;-75
2022/02/25 01:36:59;;;;;;;2.60;0.60;;;;;;;9.25;49.23;99760.47;6105644;22;101043;-75
2022/02/25 01:39:25;;;;;;;0.65;0.40;;;;;;;9.42;49.82;99784.25;6128463;22;97046;-76
2022/02/25 01:41:51;;;;;;;0.65;0.65;;;;;;;9.43;50.40;99793.84;6156275;22;96654;-75
2022/02/25 01:44:18;;;;;;;1.85;0.35;;;;;;;9.44;50.44;99800.78;6129606;22;100926;-76
2022/02/25 01:46:55;;;;;;;0.43;0.40;;;;;;;9.38;51.10;99815.91;6105642;22;100731;-75
2022/02/25 01:49:22;;;;;;;0.50;0.50;;;;;;;9.40;51.19;99832.41;6104862;22;97201;-75
2022/02/25 01:51:48;;;;;;;0.77;0.43;;;;;;;9.39;50.89;99818.44;6131191;22;96935;-75
2022/02/25 01:54:14;;;;;;;0.60;0.57;;;;;;;9.23;50.94;99802.44;6104806;22;101418;-77
2022/02/25 01:56:41;;;;;;;0.73;0.50;;;;;;;9.27;51.46;99821.53;6130567;22;101393;-75
2022/02/25 01:59:08;;;;;;;0.73;0.50;;;;;;;9.24;51.76;99809.38;6155109;22;97258;-75
2022/02/25 02:01:39;;;;;;;2.80;0.50;;;;;;;9.20;51.85;99797.31;6130596;22;96749;-75
2022/02/25 02:04:05;;;;;;;0.60;0.60;;;;;;;9.25;51.85;99812.84;6129083;22;101400;-75
2022/02/25 02:06:31;;;;;;;0.60;0.50;;;;;;;9.22;52.15;99819.09;6130146;22;98205;-76
2022/02/25 02:08:57;;;;;;;0.57;0.30;;;;;;;9.26;52.04;99835.53;6130506;22;96528;-75
2022/02/25 02:11:31;;;;;;;1.65;0.40;;;;;;;9.19;52.19;99824.44;6129646;22;96897;-75
2022/02/25 02:13:59;;;;;;;1.17;0.47;;;;;;;9.24;51.92;99839.97;6105101;22;101329;-75
2022/02/25 02:16:25;;;;;;;0.40;0.30;;;;;;;9.18;52.11;99830.56;6104656;22;100862;-75
2022/02/25 02:18:51;;;;;;;0.35;0.30;;;;;;;9.17;52.03;99851.59;6130364;22;97257;-75
2022/02/25 02:21:17;;;;;;;0.45;0.45;;;;;;;9.10;52.57;99853.53;6106871;22;97037;-78
2022/02/25 02:23:43;;;;;;;0.30;0.30;;;;;;;8.98;52.24;99846.97;6104204;22;101260;-75
2022/02/25 02:26:08;;;;;;;0.95;0.60;;;;;;;9.14;52.78;99862.16;6105287;22;100662;-75
2022/02/25 02:28:34;;;;;;;0.52;0.43;;;;;;;8.77;52.96;99838.09;6104034;22;96986;-75
2022/02/25 02:31:00;;;;;;;1.08;0.50;;;;;;;8.96;52.59;99866.25;6106202;22;97255;-75
2022/02/25 02:33:25;;;;;;;0.30;0.20;;;;;;;8.96;52.84;99867.13;6104361;22;101217;-75
2022/02/25 02:35:51;;;;;;;0.20;0.20;;;;;;;8.78;52.66;99844.19;6155235;22;97269;-75
2022/02/25 02:38:17;;;;;;;0.47;0.47;;;;;;;8.88;52.97;99869.16;6130483;22;96567;-75
2022/02/25 02:40:43;;;;;;;2.00;0.40;;;;;;;8.90;53.03;99871.72;6130549;22;96536;-75
2022/02/25 02:43:10;;;;;;;0.95;0.52;;;;;;;8.76;53.21;99846.03;6129950;22;97180;-75
2022/02/25 02:45:37;;;;;;;0.65;0.60;;;;;;;8.77;53.57;99859.03;6129738;22;98230;-76
2022/02/25 02:48:03;;;;;;;0.60;0.60;;;;;;;8.88;53.70;99871.78;6129987;22;96605;-76
2022/02/25 02:50:29;;;;;;;0.60;0.30;;;;;;;8.75;53.29;99850.38;6155632;22;96625;-75
2022/02/25 02:52:55;;;;;;;0.40;0.40;;;;;;;8.86;53.63;99883.19;6154417;22;97659;-75
2022/02/25 02:55:22;;;;;;;0.45;0.38;;;;;;;8.79;53.14;99874.72;6154615;22;98273;-79
2022/02/25 02:57:48;;;;;;;0.98;0.50;;;;;;;8.75;52.96;99873.09;6104825;22;97059;-75
2022/02/25 03:00:14;;;;;;;0.40;0.40;;;;;;;8.57;53.29;99866.72;6130698;22;96698;-75
2022/02/25 03:02:39;;;;;;;0.60;0.38;;;;;;;8.71;53.40;99881.97;6104171;22;100605;-76
2022/02/25 03:05:05;;;;;;;0.40;0.40;;;;;;;8.70;53.68;99888.09;6130004;22;97350;-75
2022/02/25 03:07:31;;;;;;;0.70;0.55;;;;;;;8.68;53.35;99893.38;6154808;22;97034;-75
2022/02/25 03:09:57;;;;;;;0.60;0.50;;;;;;;8.70;53.17;99903.81;6131196;22;96793;-75
2022/02/25 03:12:22;;;;;;;0.70;0.45;;;;;;;8.71;53.71;99906.34;6129295;22;100899;-78
2022/02/25 03:14:49;;;;;;;1.08;0.50;;;;;;;8.56;53.70;99878.09;6129051;22;99608;-75
2022/02/25 03:17:15;;;;;;;2.25;0.60;;;;;;;8.72;53.54;99925.53;6104626;22;96604;-76
2022/02/25 03:19:42;;;;;;;0.77;0.50;;;;;;;8.68;53.63;99924.78;6153948;22;96850;-75
2022/02/25 03:22:08;;;;;;;1.92;0.60;;;;;;;8.54;53.60;99911.28;6154839;22;97353;-75
2022/02/25 03:24:53;;;;;;;0.70;0.50;;;;;;;8.67;53.11;99944.00;6159320;22;97923;-75
2022/02/25 03:27:19;;;;;;;0.95;0.60;;;;;;;8.63;53.15;99939.75;6129989;22;96838;-75
2022/02/25 03:29:45;;;;;;;1.95;0.75;;;;;;;8.63;53.52;99942.38;6128504;22;97650;-75
2022/02/25 03:32:11;;;;;;;0.65;0.38;;;;;;;8.58;53.53;99952.13;6155280;22;97463;-75
2022/02/25 03:34:37;;;;;;;1.20;0.68;;;;;;;8.60;53.17;99969.50;6153458;22;97741;-75
2022/02/25 03:37:04;;;;;;;3.67;0.70;;;;;;;8.64;53.76;99991.22;6129948;22;97130;-75
2022/02/25 03:39:29;;;;;;;1.35;0.60;;;;;;;8.61;53.84;99981.69;6129314;22;96788;-75
2022/02/25 03:41:55;;;;;;;2.50;0.50;;;;;;;8.63;53.89;99989.47;6129557;22;97984;-75
2022/02/25 03:44:21;;;;;;;1.00;0.60;;;;;;;8.66;53.64;99993.75;6126531;22;100586;-75
2022/02/25 03:46:47;;;;;;;0.70;0.60;;;;;;;8.67;53.55;100001.56;6129079;22;97028;-76
2022/02/25 03:49:16;;;;;;;0.88;0.60;;;;;;;8.64;53.56;99998.19;6154542;22;96833;-75
2022/02/25 03:51:42;;;;;;;1.95;0.80;;;;;;;8.63;53.60;100005.19;6128914;22;101594;-75
2022/02/25 03:54:08;;;;;;;0.82;0.50;;;;;;;8.58;53.83;100009.69;6129373;22;101196;-75
2022/02/25 03:56:33;;;;;;;0.70;0.52;;;;;;;8.39;53.41;99985.88;6129453;22;96602;-75
2022/02/25 03:58:59;;;;;;;0.73;0.55;;;;;;;8.49;53.58;100018.66;6154801;22;97045;-75
2022/02/25 04:01:25;;;;;;;0.93;0.60;;;;;;;8.52;53.41;100023.84;6155030;22;97707;-75
2022/02/25 04:03:51;;;;;;;0.75;0.57;;;;;;;8.43;53.50;100020.63;6128630;22;100736;-75
2022/02/25 04:06:16;;;;;;;0.60;0.60;;;;;;;8.41;53.37;100025.91;6104694;22;97064;-75
2022/02/25 04:08:43;;;;;;;1.77;0.73;;;;;;;8.40;54.08;100029.41;6154343;22;97027;-75
2022/02/25 04:11:09;;;;;;;0.73;0.70;;;;;;;8.45;53.97;100048.44;6104617;22;101108;-75
2022/02/25 04:13:36;;;;;;;1.02;0.80;;;;;;;8.40;53.58;100045.09;6127955;22;101355;-75
2022/02/25 04:16:01;;;;;;;1.30;1.02;;;;;;;8.20;53.39;100013.41;6105298;22;97017;-75
2022/02/25 04:18:27;;;;;;;1.48;0.80;;;;;;;8.31;53.67;100034.88;6129636;22;97305;-76
2022/02/25 04:20:53;;;;;;;1.40;0.70;;;;;;;8.39;53.60;100049.50;6129224;22;101580;-75
2022/02/25 04:23:18;;;;;;;1.98;1.02;;;;;;;8.19;53.62;100028.25;6128745;22;101207;-75
2022/02/25 04:25:44;;;;;;;0.93;0.80;;;;;;;8.18;53.17;100025.69;6103871;22;96846;-75
2022/02/25 04:28:10;;;;;;;1.00;0.80;;;;;;;8.34;53.28;100046.13;6129530;22;97080;-75
2022/02/25 04:30:35;;;;;;;2.10;0.80;;;;;;;8.28;53.52;100054.13;6128517;22;97386;-75
2022/02/25 04:33:01;;;;;;;1.73;0.90;;;;;;;8.24;53.39;100051.69;6129171;22;101188;-75
2022/02/25 04:35:27;;;;;;;4.30;1.00;;;;;;;8.24;54.17;100065.59;6130341;22;96639;-75
2022/02/25 04:37:53;;;;;;;0.60;0.60;;;;;;;8.08;55.06;100067.78;6128635;22;96863;-75
2022/02/25 04:40:19;;;;;;;0.75;0.70;;;;;;;7.98;55.87;100092.47;6104667;22;101359;-75
2022/02/25 04:42:45;;;;;;;1.42;0.80;;;;;;;7.96;56.18;100088.16;6153519;22;97709;-75
2022/02/25 04:45:10;;;;;;;1.20;0.98;;;;;;;7.97;55.66;100082.03;6155165;22;96966;-75
2022/02/25 04:47:36;;;;;;;1.15;0.82;;;;;;;7.98;55.56;100079.41;6105613;22;96768;-75
2022/02/25 04:50:02;;;;;;;3.72;1.13;;;;;;;8.04;55.28;100094.06;6130738;22;97984;-75
2022/02/25 04:52:28;;;;;;;1.30;0.70;;;;;;;8.00;54.93;100089.78;6130364;22;97188;-75
2022/02/25 04:54:53;;;;;;;1.48;1.10;;;;;;;7.96;54.82;100107.31;6129640;22;96696;-75
2022/02/25 04:57:19;;;;;;;1.17;1.02;;;;;;;7.89;54.75;100098.78;6130599;22;96820;-75
2022/02/25 04:59:44;;;;;;;1.45;1.10;;;;;;;7.92;54.60;100113.53;6129353;22;99915;-75
2022/02/25 05:02:10;;;;;;;3.05;1.00;;;;;;;7.86;54.63;100111.94;6131072;22;101241;-75
2022/02/25 05:04:36;;;;;;;2.22;1.10;;;;;;;7.85;54.20;100117.19;6129781;22;96631;-75
2022/02/25 05:07:03;;;;;;;3.03;1.15;;;;;;;7.85;53.94;100117.19;6131078;22;96918;-75
2022/02/25 05:09:28;;;;;;;1.20;0.98;;;;;;;7.86;54.09;100130.25;6155266;22;97916;-75
2022/02/25 05:11:54;;;;;;;1.33;0.90;;;;;;;7.77;54.08;100121.78;6130987;22;97214;-75
2022/02/25 05:22:35;;;;;;;1.45;1.00;;;;;;;7.65;54.14;100160.38;6154036;22;101635;-78
2022/02/25 05:25:01;;;;;;;1.40;0.90;;;;;;;7.67;53.91;100162.94;6131267;22;96580;-75
2022/02/25 05:27:27;;;;;;;3.80;1.30;;;;;;;7.63;54.03;100166.53;6130000;22;96758;-75
2022/02/25 05:29:52;;;;;;;2.15;1.10;;;;;;;7.51;54.57;100157.25;6154811;22;98358;-75
2022/02/25 05:32:18;;;;;;;3.20;1.05;;;;;;;7.63;54.36;100190.06;6130343;22;101269;-75
2022/02/25 05:34:44;;;;;;;1.73;1.27;;;;;;;7.45;54.47;100157.41;6105576;22;98515;-75
2022/02/25 05:37:09;;;;;;;4.78;1.10;;;;;;;7.56;54.64;100180.63;6131942;22;97071;-75
2022/02/25 05:39:35;;;;;;;1.35;1.20;;;;;;;7.64;54.50;100197.00;6129941;22;101461;-78
2022/02/25 05:42:00;;;;;;;5.17;1.47;;;;;;;7.58;54.67;100192.75;6130745;22;98159;-75
2022/02/25 05:44:26;;;;;;;3.15;1.60;;;;;;;7.44;54.42;100179.16;6129998;22;96937;-75
2022/02/25 05:46:51;;;;;;;5.13;3.88;;;;;;;7.40;54.73;100178.38;6130111;22;97195;-75
2022/02/25 05:49:17;;;;;;;20.80;16.35;;;;;;;7.60;54.66;100221.47;6129419;22;100817;-75
2022/02/25 05:51:43;;;;;;;10.00;8.35;;;;;;;7.57;54.36;100214.56;6129462;22;97340;-75
2022/02/25 05:54:08;;;;;;;3.08;2.28;;;;;;;7.59;54.07;100217.13;6130224;22;97076;-75
2022/02/25 05:56:34;;;;;;;3.93;1.67;;;;;;;7.35;54.27;100184.63;6129837;22;96828;-75
2022/02/25 05:58:59;;;;;;;2.88;1.42;;;;;;;7.58;54.17;100233.72;6129595;22;100959;-73
2022/02/25 06:01:26;;;;;;;4.35;1.85;;;;;;;7.51;53.76;100221.69;6131164;22;98048;-73
2022/02/25 06:03:51;;;;;;;2.67;1.50;;;;;;;7.47;53.58;100234.78;6126317;22;98149;-74
2022/02/25 06:06:17;;;;;;;2.85;1.80;;;;;;;7.43;53.89;100243.59;6124570;22;97947;-75
2022/02/25 06:08:43;;;;;;;3.60;1.45;;;;;;;7.42;53.92;100244.50;6125230;22;101377;-76
2022/02/25 06:11:08;;;;;;;4.90;2.13;;;;;;;7.46;53.70;100250.53;6128400;22;97786;-77
2022/02/25 06:13:34;;;;;;;4.03;1.80;;;;;;;7.45;53.61;100249.66;6128081;22;96663;-79
2022/02/25 06:15:59;;;;;;;4.25;1.80;;;;;;;7.52;53.51;100263.44;6153392;22;96789;-78
2022/02/25 06:18:25;;;;;;;3.15;1.38;;;;;;;7.48;53.02;100251.34;6104530;22;101311;-76
2022/02/25 06:20:50;;;;;;;5.43;1.77;;;;;;;7.49;53.01;100253.06;6103709;22;101169;-75
2022/02/25 06:23:21;;;;;;;4.37;1.80;;;;;;;7.56;51.98;100267.69;6130105;22;96620;-76
2022/02/25 06:25:48;;;;;;;6.00;2.28;;;;;;;7.59;52.31;100279.81;6131244;22;96846;-75
2022/02/25 06:28:13;;;;;;;6.63;1.60;;;;;;;7.60;51.91;100284.19;6155524;22;97416;-76
2022/02/25 06:30:39;;;;;;;5.15;2.05;;;;;;;7.56;51.95;100282.50;6130139;22;98262;-76
2022/02/25 06:33:04;;;;;;;5.27;1.27;;;;;;;7.55;51.73;100286.03;6129501;22;97244;-80
2022/02/25 06:35:30;;;;;;;2.72;1.40;;;;;;;7.40;51.65;100267.19;6130560;22;96906;-76
2022/02/25 06:37:56;;;;;;;6.85;1.73;;;;;;;7.36;51.74;100270.78;6130214;22;97880;-81
2022/02/25 06:40:22;;;;;;;5.38;1.40;;;;;;;7.53;51.52;100312.16;6155590;22;96597;-75
2022/02/25 06:42:47;;;;;;;2.58;1.38;;;;;;;7.51;51.49;100302.66;6130454;22;96701;-82
2022/02/25 06:45:14;;;;;;;3.70;2.28;;;;;;;7.55;51.50;100317.38;6131915;22;96864;-86
2022/02/25 06:47:40;;;;;;;5.25;1.55;;;;;;;7.58;51.65;100315.53;6150594;22;101835;-81
2022/02/25 06:50:06;;;;;;;3.75;1.30;;;;;;;7.54;51.67;100298.22;6103292;22;101377;-85
2022/02/25 06:52:32;;;;;;;3.97;1.80;;;;;;;7.75;51.44;100311.72;6128024;22;96761;-86
2022/02/25 06:54:57;;;;;;;4.50;1.45;;;;;;;7.72;51.17;100299.56;6127464;22;97250;-84
2022/02/25 06:57:23;;;;;;;4.53;1.40;;;;;;;7.97;50.88;100325.13;6099372;22;101297;-84
2022/02/25 06:59:49;;;;;;;3.78;1.65;;;;;;;8.12;50.60;100315.19;6126250;22;102822;-84
2022/02/25 07:02:14;;;;;;;5.22;1.45;;;;;;;8.22;50.52;100328.91;6152541;22;96703;-84
2022/02/25 07:04:40;;;;;;;4.28;2.00;;;;;;;8.31;50.02;100326.03;6153029;22;97177;-84
2022/02/25 07:07:06;;;;;;;6.28;1.83;;;;;;;8.42;49.95;100327.59;6153033;22;100671;-84
2022/02/25 07:09:31;;;;;;;4.63;1.40;;;;;;;8.57;49.10;100335.88;6128405;22;101090;-88
2022/02/25 07:11:57;;;;;;;4.88;1.67;;;;;;;8.66;48.97;100340.03;6153978;22;96652;-88
2022/02/25 07:14:22;;;;;;;6.68;1.90;;;;;;;8.76;48.55;100351.13;6154794;22;96737;-90
2022/02/25 07:16:48;;;;;;;4.15;1.83;;;;;;;8.91;48.70;100357.72;6104160;22;100458;-89
2022/02/25 07:19:14;;;;;;;5.00;1.52;;;;;;;9.09;48.33;100356.38;6129151;22;99127;-90
2022/02/25 07:21:40;;;;;;;6.00;1.92;;;;;;;9.21;48.46;100359.50;6128477;22;96602;-89
2022/02/25 07:24:05;;;;;;;8.70;1.98;;;;;;;9.26;47.66;100336.66;6154194;22;96658;-89
2022/02/25 07:26:31;;;;;;;2.67;1.48;;;;;;;9.60;47.52;100372.38;6153922;22;97936;-91
2022/02/25 07:28:57;;;;;;;6.60;1.63;;;;;;;9.81;47.48;100362.16;6128741;22;101018;-89
2022/02/25 07:31:23;;;;;;;6.75;1.73;;;;;;;9.96;46.96;100365.16;6130195;22;97029;-91
2022/02/25 07:33:48;;;;;;;3.80;2.03;;;;;;;10.10;46.92;100358.66;6102086;22;96922;-75
2022/02/25 07:36:14;;;;;;;4.95;2.05;;;;;;;10.28;45.83;100358.09;6101812;22;100988;-74
2022/02/25 07:38:39;;;;;;;3.72;2.10;;;;;;;10.65;45.87;100385.75;6126353;22;101365;-74
2022/02/25 07:41:05;;;;;;;7.25;2.05;;;;;;;10.83;45.29;100392.16;6126119;22;97136;-75
2022/02/25 07:43:31;;;;;;;7.32;2.20;;;;;;;11.05;45.19;100387.00;6126185;22;96890;-74
2022/02/25 07:45:56;;;;;;;5.35;2.45;;;;;;;11.21;44.59;100384.72;6123627;22;100658;-79
2022/02/25 07:48:22;;;;;;;7.20;2.63;;;;;;;11.33;43.79;100381.63;6151797;22;98245;-82
2022/02/25 07:50:49;;;;;;;6.20;2.22;;;;;;;11.56;43.65;100393.94;6127715;22;97279;-83
2022/02/25 07:53:16;;;;;;;4.57;2.00;;;;;;;11.54;43.76;100380.00;6102796;22;97011;-83
2022/02/25 07:55:41;;;;;;;5.28;2.10;;;;;;;11.68;43.21;100367.19;6124653;22;98326;-82
2022/02/25 07:58:07;;;;;;;5.50;1.70;;;;;;;12.09;42.85;100401.59;6151496;22;97294;-82
2022/02/25 08:00:34;;;;;;;6.15;2.20;;;;;;;12.26;42.21;100408.00;6127301;22;97335;-76
2022/02/25 08:03:01;;;;;;;7.28;2.28;;;;;;;12.40;42.31;100414.41;6152346;22;96806;-76
2022/02/25 08:05:27;;;;;;;8.05;2.20;;;;;;;12.51;41.95;100408.72;6127050;22;97774;-76
2022/02/25 08:07:53;;;;;;;5.15;2.00;;;;;;;12.46;41.11;100405.41;6126411;22;101830;-76
2022/02/25 08:10:19;;;;;;;8.80;2.70;;;;;;;12.69;41.39;100420.28;6177706;22;96685;-76
2022/02/25 08:12:44;;;;;;;5.32;2.13;;;;;;;12.68;40.57;100406.25;6151712;22;96834;-76
2022/02/25 08:15:10;;;;;;;5.72;2.03;;;;;;;12.83;40.63;100432.88;6125951;22;101559;-76
2022/02/25 08:17:36;;;;;;;9.25;2.58;;;;;;;13.01;40.22;100423.34;6152489;22;97640;-84
2022/02/25 08:20:03;;;;;;;3.28;1.73;;;;;;;13.22;39.86;100429.47;6126993;22;98200;-83
2022/02/25 08:22:29;;;;;;;5.05;2.35;;;;;;;13.04;39.44;100426.69;6120748;22;97463;-84
2022/02/25 08:24:54;;;;;;;7.47;1.90;;;;;;;12.98;39.46;100434.88;6125933;22;97520;-83
2022/02/25 08:27:20;;;;;;;5.22;1.58;;;;;;;12.82;39.74;100415.34;6126346;22;97328;-82
2022/02/25 08:29:45;;;;;;;8.38;1.92;;;;;;;13.02;39.53;100438.22;6125262;22;97183;-82
2022/02/25 08:32:11;;;;;;;6.47;1.83;;;;;;;12.88;40.17;100446.69;6101063;22;96837;-76
2022/02/25 08:34:37;;;;;;;3.90;1.70;;;;;;;12.90;40.17;100436.97;6125019;22;98064;-83
2022/02/25 08:37:03;;;;;;;6.50;2.00;;;;;;;12.64;39.35;100441.53;6126321;22;97337;-86
2022/02/25 08:39:29;;;;;;;6.28;2.30;;;;;;;12.54;39.99;100452.50;6102896;22;97333;-85
2022/02/25 08:41:55;;;;;;;4.50;1.50;;;;;;;12.60;40.44;100445.22;6128319;22;97169;-84
2022/02/25 08:44:21;;;;;;;6.03;2.05;;;;;;;12.71;40.26;100446.53;6104089;22;101402;-85
2022/02/25 08:46:48;;;;;;;12.27;2.33;;;;;;;12.71;40.29;100436.00;6128502;22;101484;-86
2022/02/25 08:49:14;;;;;;;5.85;2.03;;;;;;;12.78;39.85;100453.28;6128497;22;96929;-85
2022/02/25 08:51:40;;;;;;;4.63;2.22;;;;;;;12.81;39.85;100455.78;6129889;22;97247;-85
2022/02/25 08:54:06;;;;;;;4.57;1.80;;;;;;;13.00;39.61;100447.97;6128547;22;101688;-85
2022/02/25 08:56:32;;;;;;;6.40;1.67;;;;;;;12.95;39.24;100450.81;6125709;22;97580;-86
2022/02/25 08:58:57;;;;;;;6.82;2.15;;;;;;;13.09;39.14;100453.72;6101249;22;97032;-85
2022/02/25 09:01:23;;;;;;;6.72;2.22;;;;;;;13.28;38.91;100443.28;6128040;22;96869;-86
2022/02/25 09:03:49;;;;;;;7.78;2.20;;;;;;;13.44;38.97;100432.03;6127220;22;98164;-89
2022/02/25 09:06:15;;;;;;;5.60;1.92;;;;;;;13.61;37.79;100469.06;6152365;22;97753;-85
2022/02/25 09:08:41;;;;;;;7.60;2.25;;;;;;;13.34;38.07;100447.41;6103201;22;96699;-85
2022/02/25 09:11:07;;;;;;;6.03;1.83;;;;;;;13.14;38.12;100414.81;6125906;22;97018;-85
2022/02/25 09:13:33;;;;;;;5.25;1.92;;;;;;;13.46;38.04;100461.84;6100681;22;100968;-84
2022/02/25 09:15:59;;;;;;;8.55;2.20;;;;;;;13.35;37.75;100472.84;6127317;22;100952;-86
2022/02/25 09:18:24;;;;;;;5.95;1.60;;;;;;;13.01;37.37;100461.09;6125228;22;96903;-85
2022/02/25 09:20:51;;;;;;;4.70;1.70;;;;;;;12.78;37.85;100469.09;6126268;22;96901;-87
2022/02/25 09:23:17;;;;;;;5.88;1.98;;;;;;;12.77;38.19;100478.78;6179982;22;98482;-85
2022/02/25 09:25:43;;;;;;;8.05;2.03;;;;;;;12.62;38.14;100477.63;6129167;22;101559;-84
2022/02/25 09:28:09;;;;;;;7.25;2.10;;;;;;;12.32;38.24;100455.13;6129064;22;96664;-86
2022/02/25 09:30:35;;;;;;;7.13;1.80;;;;;;;12.11;38.57;100470.81;6132643;22;96913;-84
2022/02/25 09:33:01;;;;;;;4.30;1.83;;;;;;;12.16;38.35;100481.19;6134806;22;97920;-86
2022/02/25 09:35:27;;;;;;;6.07;2.13;;;;;;;12.10;38.93;100476.13;6106049;22;101663;-86
2022/02/25 09:37:53;;;;;;;5.07;1.40;;;;;;;12.15;38.64;100468.91;6147883;22;97109;-81
2022/02/25 09:40:20;;;;;;;6.90;1.50;;;;;;;12.40;38.31;100495.16;6140602;22;96899;-85
2022/02/25 09:42:46;;;;;;;5.70;1.90;;;;;;;12.57;37.96;100483.97;6104023;22;101304;-83
2022/02/25 09:45:14;;;;;;;4.75;1.65;;;;;;;12.48;38.04;100456.25;6127784;22;100756;-83
2022/02/25 09:47:40;;;;;;;4.95;1.65;;;;;;;13.01;37.46;100502.41;6128300;22;98399;-86
2022/02/25 09:50:09;;;;;;;5.05;1.02;;;;;;;13.10;36.51;100486.19;6152894;22;96746;-85
2022/02/25 09:52:38;;;;;;;5.25;1.63;;;;;;;13.26;36.15;100486.44;6128323;22;101407;-86
2022/02/25 09:55:20;;;;;;;3.08;1.20;;;;;;;13.00;35.91;100491.00;6153893;22;98436;-87
2022/02/25 09:57:46;;;;;;;5.43;1.60;;;;;;;12.83;35.57;100489.06;6153854;22;96642;-86
2022/02/25 10:00:12;;;;;;;4.20;1.60;;;;;;;12.68;36.21;100505.44;6127738;22;97260;-85
2022/02/25 10:02:44;;;;;;;4.65;1.52;;;;;;;12.26;36.62;100472.00;6128922;22;97855;-92
2022/02/25 10:05:16;;;;;;;4.45;1.45;;;;;;;12.23;35.66;100501.94;6127416;22;101396;-73
2022/02/25 10:07:42;;;;;;;;;;;;;;;11.95;36.05;100509.13;6154315;22;97050;-73
2022/02/25 10:10:08;;;;;;;2.85;1.02;;;;;;;11.79;36.60;100507.03;6127601;22;97106;-74
2022/02/25 10:12:34;;;;;;;5.30;1.63;;;;;;;11.70;36.93;100515.25;6127313;22;98176;-74
2022/02/25 10:14:59;;;;;;;5.47;1.65;;;;;;;11.66;36.64;100513.63;6153116;22;97240;-74
2022/02/25 10:17:26;;;;;;;5.03;1.45;;;;;;;11.51;36.57;100498.41;6153165;22;97825;-74
2022/02/25 10:20:04;;;;;;;6.82;1.42;;;;;;;11.82;36.98;100523.63;6129117;22;97113;-74
2022/02/25 10:22:32;;;;;;;5.00;1.70;;;;;;;11.96;37.02;100508.22;6119578;22;98267;-74
2022/02/25 10:25:06;;;;;;;6.85;1.77;;;;;;;12.17;37.05;100515.31;6147286;22;97245;-74
2022/02/25 10:27:34;;;;;;;5.43;1.40;;;;;;;12.30;37.09;100510.44;6124389;22;97400;-74
2022/02/25 10:30:13;;;;;;;5.80;1.48;;;;;;;12.64;36.28;100509.16;6125201;22;97446;-73
2022/02/25 10:32:42;;;;;;;3.88;1.20;;;;;;;12.84;35.60;100511.84;6179301;22;97975;-74
2022/02/25 10:35:40;;;;;;;3.08;1.25;;;;;;;12.81;35.13;100508.47;6125596;22;100988;-74
2022/02/25 10:38:17;;;;;;;4.30;1.40;;;;;;;12.56;34.92;100512.06;6126639;22;96720;-74
2022/02/25 10:40:46;;;;;;;3.40;1.10;;;;;;;12.37;35.32;100522.47;6152838;22;98178;-73
2022/02/25 10:43:14;;;;;;;5.40;1.50;;;;;;;12.26;35.03;100516.75;6152108;22;97301;-74
2022/02/25 10:45:41;;;;;;;6.65;1.67;;;;;;;12.06;34.87;100514.84;6178726;22;98653;-73
2022/02/25 10:48:13;;;;;;;3.13;1.10;;;;;;;11.79;34.88;100496.50;6126722;22;97121;-74
2022/02/25 10:51:07;;;;;;;5.07;1.33;;;;;;;11.73;35.17;100522.19;6099945;22;96817;-74
2022/02/25 10:53:43;;;;;;;5.68;1.80;;;;;;;11.60;35.29;100526.16;6148607;22;97363;-73
2022/02/25 10:56:11;;;;;;;6.43;2.03;;;;;;;11.10;35.62;100488.41;6179876;22;97318;-74
2022/02/25 10:58:44;;;;;;;3.65;1.15;;;;;;;11.20;36.02;100527.50;6127251;22;96743;-74
2022/02/25 11:01:14;;;;;;;4.63;1.40;;;;;;;11.26;36.55;100533.44;6179500;22;97175;-74
2022/02/25 11:03:40;;;;;;;4.47;1.52;;;;;;;11.18;36.48;100509.16;6126681;22;97812;-74
2022/02/25 11:06:11;;;;;;;6.80;1.83;;;;;;;11.18;36.53;100503.06;6126329;22;97502;-73
2022/02/25 11:08:37;;;;;;;5.03;1.50;;;;;;;11.32;36.60;100529.75;6127477;22;97575;-74
2022/02/25 11:11:04;;;;;;;5.00;1.38;;;;;;;11.24;36.62;100532.59;6127032;22;97176;-72
2022/02/25 11:13:32;;;;;;;6.53;1.60;;;;;;;11.23;36.83;100530.06;6130115;22;97381;-80
2022/02/25 11:15:59;;;;;;;4.47;1.88;;;;;;;11.25;37.06;100525.56;6155210;22;97201;-80
2022/02/25 11:18:25;;;;;;;10.15;1.60;;;;;;;11.29;37.22;100516.69;6130910;22;96628;-82
2022/02/25 11:20:51;;;;;;;3.60;1.85;;;;;;;11.28;37.49;100515.81;6131491;22;96786;-83
2022/02/25 11:23:17;;;;;;;4.95;1.70;;;;;;;11.14;37.57;100490.91;6105188;22;100915;-77
2022/02/25 11:25:44;;;;;;;9.43;2.47;;;;;;;11.27;37.55;100519.38;6129829;22;101090;-82
2022/02/25 11:28:10;;;;;;;4.15;1.67;;;;;;;11.21;37.39;100522.19;6104810;22;96581;-83
2022/02/25 11:30:54;;;;;;;4.45;1.63;;;;;;;11.14;36.99;100511.94;6130534;22;98031;-82
2022/02/25 11:33:22;;;;;;;4.13;1.40;;;;;;;10.98;37.32;100491.44;6155590;22;97925;-76
2022/02/25 11:36:08;;;;;;;8.55;2.00;;;;;;;10.88;36.69;100492.66;6106016;22;101078;-77
2022/02/25 11:38:45;;;;;;;6.00;1.80;;;;;;;11.00;36.70;100517.66;6157511;22;96595;-87